sensor_id;sensor_type;location;lat;lon;timestamp;P1;durP1;ratioP1;P2;durP2;ratioP2
18194;SDS011;9223;50.988;3.162;2023-11-19T00:03:31;16.63;;;2.47;;
18194;SDS011;9223;50.988;3.162;2023-11-19T00:09:37;10.23;;;2.67;;
18194;SDS011;9223;50.988;3.162;2023-11-19T00:15:41;10.00;;;2.90;;
18194;SDS011;9223;50.988;3.162;2023-11-19T00:21:46;11.38;;;2.80;;
18194;SDS011;9223;50.988;3.162;2023-11-19T00:27:51;15.65;;;3.00;;
18194;SDS011;9223;50.988;3.162;2023-11-19T00:33:55;10.35;;;2.85;;
18194;SDS011;9223;50.988;3.162;2023-11-19T00:39:59;11.88;;;2.30;;
18194;SDS011;9223;50.988;3.162;2023-11-19T00:46:08;13.27;;;2.75;;
18194;SDS011;9223;50.988;3.162;2023-11-19T00:52:12;14.85;;;3.15;;
18194;SDS011;9223;50.988;3.162;2023-11-19T00:58:16;17.00;;;3.03;;
18194;SDS011;9223;50.988;3.162;2023-11-19T01:04:21;15.65;;;3.03;;
18194;SDS011;9223;50.988;3.162;2023-11-19T01:10:25;17.23;;;3.33;;
18194;SDS011;9223;50.988;3.162;2023-11-19T01:16:30;15.43;;;3.83;;
18194;SDS011;9223;50.988;3.162;2023-11-19T01:22:36;21.42;;;3.80;;
18194;SDS011;9223;50.988;3.162;2023-11-19T01:28:39;13.93;;;3.33;;
18194;SDS011;9223;50.988;3.162;2023-11-19T01:34:49;26.00;;;5.18;;
18194;SDS011;9223;50.988;3.162;2023-11-19T01:40:57;20.02;;;3.95;;
18194;SDS011;9223;50.988;3.162;2023-11-19T01:47:00;17.48;;;3.42;;
18194;SDS011;9223;50.988;3.162;2023-11-19T01:53:05;17.88;;;3.38;;
18194;SDS011;9223;50.988;3.162;2023-11-19T01:59:10;21.27;;;4.07;;
18194;SDS011;9223;50.988;3.162;2023-11-19T02:05:15;25.10;;;4.35;;
18194;SDS011;9223;50.988;3.162;2023-11-19T02:11:18;18.02;;;3.33;;
18194;SDS011;9223;50.988;3.162;2023-11-19T02:17:26;19.63;;;3.78;;
18194;SDS011;9223;50.988;3.162;2023-11-19T02:23:30;23.95;;;3.85;;
18194;SDS011;9223;50.988;3.162;2023-11-19T02:29:35;18.42;;;4.10;;
18194;SDS011;9223;50.988;3.162;2023-11-19T02:35:39;17.52;;;3.60;;
18194;SDS011;9223;50.988;3.162;2023-11-19T02:41:42;17.65;;;3.80;;
18194;SDS011;9223;50.988;3.162;2023-11-19T02:47:47;17.75;;;3.40;;
18194;SDS011;9223;50.988;3.162;2023-11-19T02:53:51;18.50;;;3.60;;
18194;SDS011;9223;50.988;3.162;2023-11-19T02:59:54;18.20;;;3.80;;
18194;SDS011;9223;50.988;3.162;2023-11-19T03:05:59;16.73;;;2.85;;
18194;SDS011;9223;50.988;3.162;2023-11-19T03:12:06;17.92;;;3.42;;
18194;SDS011;9223;50.988;3.162;2023-11-19T03:18:10;15.20;;;2.97;;
18194;SDS011;9223;50.988;3.162;2023-11-19T03:24:15;16.27;;;3.08;;
18194;SDS011;9223;50.988;3.162;2023-11-19T03:30:19;16.42;;;3.28;;
18194;SDS011;9223;50.988;3.162;2023-11-19T03:36:35;18.70;;;4.00;;
18194;SDS011;9223;50.988;3.162;2023-11-19T03:42:39;19.70;;;3.83;;
18194;SDS011;9223;50.988;3.162;2023-11-19T03:48:43;15.25;;;3.72;;
18194;SDS011;9223;50.988;3.162;2023-11-19T03:54:47;15.80;;;3.40;;
18194;SDS011;9223;50.988;3.162;2023-11-19T04:00:52;22.25;;;3.00;;
18194;SDS011;9223;50.988;3.162;2023-11-19T04:06:56;16.77;;;3.35;;
18194;SDS011;9223;50.988;3.162;2023-11-19T04:13:00;16.05;;;2.97;;
18194;SDS011;9223;50.988;3.162;2023-11-19T04:19:06;23.33;;;4.13;;
18194;SDS011;9223;50.988;3.162;2023-11-19T04:25:09;20.45;;;3.95;;
18194;SDS011;9223;50.988;3.162;2023-11-19T04:31:13;13.35;;;3.17;;
18194;SDS011;9223;50.988;3.162;2023-11-19T04:37:19;14.88;;;3.35;;
18194;SDS011;9223;50.988;3.162;2023-11-19T04:43:23;18.98;;;3.75;;
18194;SDS011;9223;50.988;3.162;2023-11-19T04:49:26;17.05;;;3.40;;
18194;SDS011;9223;50.988;3.162;2023-11-19T04:55:31;18.90;;;4.07;;
18194;SDS011;9223;50.988;3.162;2023-11-19T05:01:35;21.27;;;3.17;;
18194;SDS011;9223;50.988;3.162;2023-11-19T05:07:38;16.17;;;3.55;;
18194;SDS011;9223;50.988;3.162;2023-11-19T05:13:44;19.75;;;3.13;;
18194;SDS011;9223;50.988;3.162;2023-11-19T05:19:47;21.10;;;3.38;;
18194;SDS011;9223;50.988;3.162;2023-11-19T05:25:51;17.25;;;2.92;;
18194;SDS011;9223;50.988;3.162;2023-11-19T05:31:56;14.35;;;3.13;;
18194;SDS011;9223;50.988;3.162;2023-11-19T05:37:59;21.88;;;4.25;;
18194;SDS011;9223;50.988;3.162;2023-11-19T05:44:03;18.90;;;3.63;;
18194;SDS011;9223;50.988;3.162;2023-11-19T05:50:09;19.65;;;3.40;;
18194;SDS011;9223;50.988;3.162;2023-11-19T05:56:13;20.70;;;3.47;;
18194;SDS011;9223;50.988;3.162;2023-11-19T06:02:17;22.15;;;4.32;;
18194;SDS011;9223;50.988;3.162;2023-11-19T06:08:22;20.45;;;3.65;;
18194;SDS011;9223;50.988;3.162;2023-11-19T06:14:28;17.63;;;3.70;;
18194;SDS011;9223;50.988;3.162;2023-11-19T06:20:32;18.20;;;3.67;;
18194;SDS011;9223;50.988;3.162;2023-11-19T06:26:40;12.05;;;2.85;;
18194;SDS011;9223;50.988;3.162;2023-11-19T06:32:44;16.88;;;4.00;;
18194;SDS011;9223;50.988;3.162;2023-11-19T06:38:48;18.33;;;4.70;;
18194;SDS011;9223;50.988;3.162;2023-11-19T06:44:53;20.05;;;4.03;;
18194;SDS011;9223;50.988;3.162;2023-11-19T06:50:59;20.77;;;3.92;;
18194;SDS011;9223;50.988;3.162;2023-11-19T06:57:02;27.75;;;4.22;;
18194;SDS011;9223;50.988;3.162;2023-11-19T07:03:07;16.85;;;4.20;;
18194;SDS011;9223;50.988;3.162;2023-11-19T07:09:11;20.90;;;4.20;;
18194;SDS011;9223;50.988;3.162;2023-11-19T07:15:15;13.50;;;3.72;;
18194;SDS011;9223;50.988;3.162;2023-11-19T07:21:21;19.85;;;4.15;;
18194;SDS011;9223;50.988;3.162;2023-11-19T07:27:25;21.80;;;3.75;;
18194;SDS011;9223;50.988;3.162;2023-11-19T07:33:29;20.30;;;4.38;;
18194;SDS011;9223;50.988;3.162;2023-11-19T07:39:34;18.80;;;4.10;;
18194;SDS011;9223;50.988;3.162;2023-11-19T07:45:39;22.05;;;4.20;;
18194;SDS011;9223;50.988;3.162;2023-11-19T07:51:46;22.58;;;4.45;;
18194;SDS011;9223;50.988;3.162;2023-11-19T07:57:51;20.02;;;4.07;;
18194;SDS011;9223;50.988;3.162;2023-11-19T08:03:55;16.70;;;3.70;;
18194;SDS011;9223;50.988;3.162;2023-11-19T08:10:00;17.75;;;3.85;;
18194;SDS011;9223;50.988;3.162;2023-11-19T08:16:06;16.73;;;3.65;;
18194;SDS011;9223;50.988;3.162;2023-11-19T08:22:11;22.17;;;3.75;;
18194;SDS011;9223;50.988;3.162;2023-11-19T08:28:14;24.27;;;4.65;;
18194;SDS011;9223;50.988;3.162;2023-11-19T08:34:19;17.27;;;3.40;;
18194;SDS011;9223;50.988;3.162;2023-11-19T08:40:23;15.95;;;3.47;;
18194;SDS011;9223;50.988;3.162;2023-11-19T08:46:27;19.98;;;4.45;;
18194;SDS011;9223;50.988;3.162;2023-11-19T08:52:32;17.77;;;4.32;;
18194;SDS011;9223;50.988;3.162;2023-11-19T08:58:36;18.60;;;3.67;;
18194;SDS011;9223;50.988;3.162;2023-11-19T09:04:39;19.10;;;3.83;;
18194;SDS011;9223;50.988;3.162;2023-11-19T09:10:45;14.85;;;3.50;;
18194;SDS011;9223;50.988;3.162;2023-11-19T09:16:48;10.93;;;2.95;;
18194;SDS011;9223;50.988;3.162;2023-11-19T09:22:52;21.10;;;3.95;;
18194;SDS011;9223;50.988;3.162;2023-11-19T09:28:57;23.05;;;3.72;;
18194;SDS011;9223;50.988;3.162;2023-11-19T09:35:00;21.80;;;5.22;;
18194;SDS011;9223;50.988;3.162;2023-11-19T09:41:04;24.00;;;5.97;;
18194;SDS011;9223;50.988;3.162;2023-11-19T09:47:11;17.75;;;3.83;;
18194;SDS011;9223;50.988;3.162;2023-11-19T09:53:16;24.35;;;4.38;;
18194;SDS011;9223;50.988;3.162;2023-11-19T09:59:21;20.67;;;4.72;;
18194;SDS011;9223;50.988;3.162;2023-11-19T10:05:27;18.63;;;3.88;;
18194;SDS011;9223;50.988;3.162;2023-11-19T10:11:30;18.58;;;3.30;;
18194;SDS011;9223;50.988;3.162;2023-11-19T10:17:34;15.82;;;3.85;;
18194;SDS011;9223;50.988;3.162;2023-11-19T10:23:52;24.80;;;5.07;;
18194;SDS011;9223;50.988;3.162;2023-11-19T10:29:58;21.13;;;4.22;;
18194;SDS011;9223;50.988;3.162;2023-11-19T10:36:02;13.77;;;4.07;;
18194;SDS011;9223;50.988;3.162;2023-11-19T10:42:16;18.13;;;3.70;;
18194;SDS011;9223;50.988;3.162;2023-11-19T10:48:20;17.52;;;4.15;;
18194;SDS011;9223;50.988;3.162;2023-11-19T10:54:25;15.02;;;3.50;;
18194;SDS011;9223;50.988;3.162;2023-11-19T11:00:33;8.65;;;2.97;;
18194;SDS011;9223;50.988;3.162;2023-11-19T11:06:37;19.30;;;4.35;;
18194;SDS011;9223;50.988;3.162;2023-11-19T11:12:41;20.92;;;4.20;;
18194;SDS011;9223;50.988;3.162;2023-11-19T11:18:47;18.40;;;3.63;;
18194;SDS011;9223;50.988;3.162;2023-11-19T11:31:28;8.98;;;2.15;;
18194;SDS011;9223;50.988;3.162;2023-11-19T11:37:36;15.15;;;3.35;;
18194;SDS011;9223;50.988;3.162;2023-11-19T11:43:44;8.40;;;2.30;;
18194;SDS011;9223;50.988;3.162;2023-11-19T11:49:48;16.50;;;2.60;;
18194;SDS011;9223;50.988;3.162;2023-11-19T11:55:54;12.70;;;3.50;;
18194;SDS011;9223;50.988;3.162;2023-11-19T12:02:00;19.98;;;3.85;;
18194;SDS011;9223;50.988;3.162;2023-11-19T12:08:04;9.20;;;2.42;;
18194;SDS011;9223;50.988;3.162;2023-11-19T12:14:09;15.57;;;2.45;;
18194;SDS011;9223;50.988;3.162;2023-11-19T12:20:13;14.77;;;2.80;;
18194;SDS011;9223;50.988;3.162;2023-11-19T12:26:35;7.90;;;1.92;;
18194;SDS011;9223;50.988;3.162;2023-11-19T12:32:41;8.88;;;1.98;;
18194;SDS011;9223;50.988;3.162;2023-11-19T12:38:45;10.07;;;2.17;;
18194;SDS011;9223;50.988;3.162;2023-11-19T12:44:55;7.65;;;2.33;;
18194;SDS011;9223;50.988;3.162;2023-11-19T12:51:00;13.85;;;2.83;;
18194;SDS011;9223;50.988;3.162;2023-11-19T12:57:04;14.63;;;3.25;;
18194;SDS011;9223;50.988;3.162;2023-11-19T13:03:08;13.68;;;3.10;;
18194;SDS011;9223;50.988;3.162;2023-11-19T13:09:22;13.63;;;2.90;;
18194;SDS011;9223;50.988;3.162;2023-11-19T13:15:26;15.60;;;3.40;;
18194;SDS011;9223;50.988;3.162;2023-11-19T13:21:30;14.93;;;3.65;;
18194;SDS011;9223;50.988;3.162;2023-11-19T13:27:35;7.15;;;2.25;;
18194;SDS011;9223;50.988;3.162;2023-11-19T13:33:39;7.30;;;1.83;;
18194;SDS011;9223;50.988;3.162;2023-11-19T13:39:43;7.18;;;1.85;;
18194;SDS011;9223;50.988;3.162;2023-11-19T13:45:48;8.05;;;2.15;;
18194;SDS011;9223;50.988;3.162;2023-11-19T13:51:52;11.70;;;2.72;;
18194;SDS011;9223;50.988;3.162;2023-11-19T13:57:56;12.27;;;3.33;;
18194;SDS011;9223;50.988;3.162;2023-11-19T14:04:01;11.15;;;2.75;;
18194;SDS011;9223;50.988;3.162;2023-11-19T14:10:05;10.40;;;2.60;;
18194;SDS011;9223;50.988;3.162;2023-11-19T14:16:11;10.35;;;2.38;;
18194;SDS011;9223;50.988;3.162;2023-11-19T14:22:16;12.60;;;3.20;;
18194;SDS011;9223;50.988;3.162;2023-11-19T14:28:19;10.95;;;2.20;;
18194;SDS011;9223;50.988;3.162;2023-11-19T14:34:23;13.85;;;2.92;;
18194;SDS011;9223;50.988;3.162;2023-11-19T14:40:29;15.73;;;3.75;;
18194;SDS011;9223;50.988;3.162;2023-11-19T14:46:35;10.50;;;3.65;;
18194;SDS011;9223;50.988;3.162;2023-11-19T14:52:39;9.48;;;2.60;;
18194;SDS011;9223;50.988;3.162;2023-11-19T14:58:44;14.02;;;4.03;;
18194;SDS011;9223;50.988;3.162;2023-11-19T15:04:47;13.25;;;3.90;;
18194;SDS011;9223;50.988;3.162;2023-11-19T15:10:51;15.07;;;3.17;;
18194;SDS011;9223;50.988;3.162;2023-11-19T15:16:56;20.42;;;3.45;;
18194;SDS011;9223;50.988;3.162;2023-11-19T15:23:00;15.43;;;2.83;;
18194;SDS011;9223;50.988;3.162;2023-11-19T15:29:05;13.05;;;2.83;;
18194;SDS011;9223;50.988;3.162;2023-11-19T15:35:10;12.98;;;3.15;;
18194;SDS011;9223;50.988;3.162;2023-11-19T15:41:15;11.52;;;2.13;;
18194;SDS011;9223;50.988;3.162;2023-11-19T15:47:19;11.55;;;2.58;;
18194;SDS011;9223;50.988;3.162;2023-11-19T15:53:24;9.20;;;3.13;;
18194;SDS011;9223;50.988;3.162;2023-11-19T15:59:28;13.40;;;2.92;;
18194;SDS011;9223;50.988;3.162;2023-11-19T16:05:32;8.07;;;2.20;;
18194;SDS011;9223;50.988;3.162;2023-11-19T16:11:37;9.43;;;2.25;;
18194;SDS011;9223;50.988;3.162;2023-11-19T16:17:56;10.85;;;2.22;;
18194;SDS011;9223;50.988;3.162;2023-11-19T16:24:00;11.13;;;3.03;;
18194;SDS011;9223;50.988;3.162;2023-11-19T16:30:06;4.38;;;1.95;;
18194;SDS011;9223;50.988;3.162;2023-11-19T16:36:11;7.30;;;1.70;;
18194;SDS011;9223;50.988;3.162;2023-11-19T16:42:15;8.02;;;1.85;;
18194;SDS011;9223;50.988;3.162;2023-11-19T16:48:23;9.95;;;2.20;;
18194;SDS011;9223;50.988;3.162;2023-11-19T16:54:27;9.63;;;2.28;;
18194;SDS011;9223;50.988;3.162;2023-11-19T17:00:31;8.07;;;2.30;;
18194;SDS011;9223;50.988;3.162;2023-11-19T17:06:38;10.55;;;2.20;;
18194;SDS011;9223;50.988;3.162;2023-11-19T17:12:42;13.32;;;2.40;;
18194;SDS011;9223;50.988;3.162;2023-11-19T17:18:45;9.95;;;2.28;;
18194;SDS011;9223;50.988;3.162;2023-11-19T17:24:50;12.00;;;3.35;;
18194;SDS011;9223;50.988;3.162;2023-11-19T17:30:54;6.32;;;2.30;;
18194;SDS011;9223;50.988;3.162;2023-11-19T17:36:58;7.50;;;2.40;;
18194;SDS011;9223;50.988;3.162;2023-11-19T17:43:03;8.38;;;2.55;;
18194;SDS011;9223;50.988;3.162;2023-11-19T17:49:07;13.55;;;3.88;;
18194;SDS011;9223;50.988;3.162;2023-11-19T17:55:11;12.65;;;3.20;;
18194;SDS011;9223;50.988;3.162;2023-11-19T18:01:16;13.68;;;3.13;;
18194;SDS011;9223;50.988;3.162;2023-11-19T18:07:20;10.85;;;2.88;;
18194;SDS011;9223;50.988;3.162;2023-11-19T18:13:24;10.02;;;2.83;;
18194;SDS011;9223;50.988;3.162;2023-11-19T18:19:29;11.02;;;2.53;;
18194;SDS011;9223;50.988;3.162;2023-11-19T18:25:32;10.77;;;2.70;;
18194;SDS011;9223;50.988;3.162;2023-11-19T18:31:37;12.95;;;2.38;;
18194;SDS011;9223;50.988;3.162;2023-11-19T18:37:42;12.63;;;2.35;;
18194;SDS011;9223;50.988;3.162;2023-11-19T18:43:48;12.82;;;2.95;;
18194;SDS011;9223;50.988;3.162;2023-11-19T18:49:51;11.55;;;2.75;;
18194;SDS011;9223;50.988;3.162;2023-11-19T18:55:56;6.15;;;2.47;;
18194;SDS011;9223;50.988;3.162;2023-11-19T19:02:00;6.80;;;1.80;;
18194;SDS011;9223;50.988;3.162;2023-11-19T19:08:04;5.85;;;2.28;;
18194;SDS011;9223;50.988;3.162;2023-11-19T19:14:09;13.50;;;2.35;;
18194;SDS011;9223;50.988;3.162;2023-11-19T19:20:13;8.65;;;2.13;;
18194;SDS011;9223;50.988;3.162;2023-11-19T19:26:17;9.38;;;2.33;;
18194;SDS011;9223;50.988;3.162;2023-11-19T19:32:22;8.98;;;2.08;;
18194;SDS011;9223;50.988;3.162;2023-11-19T19:38:26;5.65;;;1.80;;
18194;SDS011;9223;50.988;3.162;2023-11-19T19:44:29;4.65;;;1.40;;
18194;SDS011;9223;50.988;3.162;2023-11-19T19:50:35;7.82;;;2.03;;
18194;SDS011;9223;50.988;3.162;2023-11-19T19:56:39;3.08;;;1.00;;
18194;SDS011;9223;50.988;3.162;2023-11-19T20:02:43;3.35;;;1.13;;
18194;SDS011;9223;50.988;3.162;2023-11-19T20:08:48;5.55;;;1.42;;
18194;SDS011;9223;50.988;3.162;2023-11-19T20:14:52;8.38;;;1.77;;
18194;SDS011;9223;50.988;3.162;2023-11-19T20:20:55;8.32;;;1.45;;
18194;SDS011;9223;50.988;3.162;2023-11-19T20:27:00;7.68;;;1.58;;
18194;SDS011;9223;50.988;3.162;2023-11-19T20:33:05;8.57;;;1.70;;
18194;SDS011;9223;50.988;3.162;2023-11-19T20:39:08;8.20;;;2.25;;
18194;SDS011;9223;50.988;3.162;2023-11-19T20:45:15;8.98;;;1.85;;
18194;SDS011;9223;50.988;3.162;2023-11-19T20:51:21;7.45;;;1.90;;
18194;SDS011;9223;50.988;3.162;2023-11-19T20:57:32;8.80;;;2.30;;
18194;SDS011;9223;50.988;3.162;2023-11-19T21:03:37;9.82;;;2.38;;
18194;SDS011;9223;50.988;3.162;2023-11-19T21:09:41;5.40;;;1.75;;
18194;SDS011;9223;50.988;3.162;2023-11-19T21:15:45;10.27;;;2.25;;
18194;SDS011;9223;50.988;3.162;2023-11-19T21:22:00;5.47;;;2.03;;
18194;SDS011;9223;50.988;3.162;2023-11-19T21:28:04;5.32;;;1.60;;
18194;SDS011;9223;50.988;3.162;2023-11-19T21:34:07;7.13;;;1.33;;
18194;SDS011;9223;50.988;3.162;2023-11-19T21:40:12;3.95;;;0.88;;
18194;SDS011;9223;50.988;3.162;2023-11-19T21:46:16;3.63;;;1.23;;
18194;SDS011;9223;50.988;3.162;2023-11-19T21:52:22;6.57;;;1.38;;
18194;SDS011;9223;50.988;3.162;2023-11-19T21:58:27;4.80;;;1.20;;
18194;SDS011;9223;50.988;3.162;2023-11-19T22:04:33;5.82;;;1.33;;
18194;SDS011;9223;50.988;3.162;2023-11-19T22:10:36;8.13;;;1.38;;
18194;SDS011;9223;50.988;3.162;2023-11-19T22:16:42;6.45;;;1.40;;
18194;SDS011;9223;50.988;3.162;2023-11-19T22:22:46;7.63;;;1.77;;
18194;SDS011;9223;50.988;3.162;2023-11-19T22:28:52;10.10;;;2.83;;
18194;SDS011;9223;50.988;3.162;2023-11-19T22:34:59;15.57;;;3.00;;
18194;SDS011;9223;50.988;3.162;2023-11-19T22:41:03;11.93;;;2.45;;
18194;SDS011;9223;50.988;3.162;2023-11-19T22:47:06;9.80;;;2.53;;
18194;SDS011;9223;50.988;3.162;2023-11-19T22:53:11;7.63;;;2.13;;
18194;SDS011;9223;50.988;3.162;2023-11-19T22:59:15;8.95;;;2.00;;
18194;SDS011;9223;50.988;3.162;2023-11-19T23:05:19;10.80;;;1.73;;
18194;SDS011;9223;50.988;3.162;2023-11-19T23:11:23;10.88;;;2.60;;
18194;SDS011;9223;50.988;3.162;2023-11-19T23:17:27;9.18;;;1.95;;
18194;SDS011;9223;50.988;3.162;2023-11-19T23:23:31;7.85;;;1.27;;
18194;SDS011;9223;50.988;3.162;2023-11-19T23:29:36;8.00;;;1.92;;
18194;SDS011;9223;50.988;3.162;2023-11-19T23:35:39;7.00;;;1.88;;
18194;SDS011;9223;50.988;3.162;2023-11-19T23:41:43;7.88;;;1.67;;
18194;SDS011;9223;50.988;3.162;2023-11-19T23:47:48;8.75;;;1.70;;
18194;SDS011;9223;50.988;3.162;2023-11-19T23:53:51;9.80;;;1.63;;
18194;SDS011;9223;50.988;3.162;2023-11-19T23:59:55;7.90;;;1.50;;
